createdAt,value
2023-05-02T00:02:21.394Z,16.50
2023-05-02T00:04:49.093Z,16.60
2023-05-02T00:07:16.543Z,16.82
2023-05-02T00:09:43.941Z,16.85
2023-05-02T00:12:11.534Z,16.66
2023-05-02T00:14:38.905Z,16.69
2023-05-02T00:17:06.331Z,16.69
2023-05-02T00:19:38.919Z,16.80
2023-05-02T00:22:06.270Z,16.69
2023-05-02T00:24:34.128Z,16.95
2023-05-02T00:27:02.083Z,16.70
2023-05-02T00:29:29.504Z,16.83
2023-05-02T00:31:58.080Z,16.85
2023-05-02T00:34:30.706Z,16.71
2023-05-02T00:36:58.882Z,16.76
2023-05-02T00:39:26.250Z,16.78
2023-05-02T00:41:59.971Z,16.69
2023-05-02T00:44:28.323Z,16.78
2023-05-02T00:46:56.722Z,16.69
2023-05-02T00:49:24.787Z,17.12
2023-05-02T00:51:54.045Z,16.91
2023-05-02T00:54:21.411Z,16.63
2023-05-02T00:56:48.759Z,16.69
2023-05-02T00:59:16.976Z,16.87
2023-05-02T01:02:02.875Z,16.64
2023-05-02T01:04:33.477Z,16.60
2023-05-02T01:07:32.798Z,16.47
2023-05-02T01:10:21.443Z,16.66
2023-05-02T01:12:58.048Z,16.39
2023-05-02T01:15:26.000Z,16.53
2023-05-02T01:17:55.151Z,16.22
2023-05-02T01:20:25.527Z,16.31
2023-05-02T01:22:54.802Z,16.49
2023-05-02T01:25:33.260Z,16.50
2023-05-02T01:28:22.155Z,16.51
2023-05-02T01:30:50.939Z,16.82
2023-05-02T01:33:19.225Z,16.35
2023-05-02T01:35:50.504Z,16.41
2023-05-02T01:38:19.209Z,16.35
2023-05-02T01:40:47.819Z,16.43
2023-05-02T01:43:15.836Z,16.30
2023-05-02T01:45:44.855Z,16.21
2023-05-02T01:48:13.764Z,16.00
2023-05-02T01:50:42.203Z,15.92
2023-05-02T01:53:11.384Z,15.99
2023-05-02T01:55:39.607Z,16.11
2023-05-02T01:58:07.568Z,16.50
2023-05-02T02:00:35.259Z,16.42
2023-05-02T02:03:06.049Z,16.30
2023-05-02T02:05:35.259Z,16.04
2023-05-02T02:08:04.229Z,16.32
2023-05-02T02:10:36.819Z,16.12
2023-05-02T02:13:08.104Z,16.36
2023-05-02T02:15:36.279Z,15.74
2023-05-02T02:18:18.260Z,15.89
2023-05-02T02:20:46.770Z,15.68
2023-05-02T02:23:16.600Z,15.92
2023-05-02T02:25:45.093Z,15.81
2023-05-02T02:28:12.863Z,15.83
2023-05-02T02:30:40.648Z,16.01
2023-05-02T02:33:08.099Z,16.14
2023-05-02T02:35:40.694Z,16.09
2023-05-02T02:38:27.782Z,16.03
2023-05-02T02:41:18.350Z,16.14
2023-05-02T02:44:05.037Z,16.14
2023-05-02T02:46:38.435Z,15.97
2023-05-02T02:49:14.933Z,16.18
2023-05-02T02:51:58.867Z,16.19
2023-05-02T02:54:33.644Z,16.08
2023-05-02T02:57:39.605Z,16.06
2023-05-02T03:00:17.707Z,15.90
2023-05-02T03:02:47.106Z,15.82
2023-05-02T03:05:15.522Z,15.94
2023-05-02T03:07:43.006Z,15.73
2023-05-02T03:10:11.861Z,15.82
2023-05-02T03:12:40.325Z,15.97
2023-05-02T03:15:25.512Z,15.82
2023-05-02T03:17:53.315Z,15.89
2023-05-02T03:20:20.777Z,15.50
2023-05-02T03:22:48.425Z,15.57
2023-05-02T03:25:16.257Z,15.35
2023-05-02T03:27:43.988Z,15.32
2023-05-02T03:30:11.991Z,15.46
2023-05-02T03:32:39.688Z,15.61
2023-05-02T03:35:07.526Z,15.39
2023-05-02T03:37:35.858Z,15.67
2023-05-02T03:40:03.755Z,15.42
2023-05-02T03:42:32.044Z,15.44
2023-05-02T03:44:59.512Z,15.39
2023-05-02T03:47:27.659Z,15.53
2023-05-02T03:49:55.225Z,15.55
2023-05-02T03:52:23.237Z,15.42
2023-05-02T03:54:52.068Z,15.45
2023-05-02T03:57:21.665Z,15.43
2023-05-02T03:59:49.416Z,15.46
2023-05-02T04:02:17.537Z,15.34
2023-05-02T04:04:46.222Z,15.35
2023-05-02T04:07:19.055Z,15.15
2023-05-02T04:09:47.222Z,15.38
2023-05-02T04:12:15.822Z,15.54
2023-05-02T04:14:43.546Z,15.49
2023-05-02T04:17:11.583Z,15.79
2023-05-02T04:19:39.339Z,15.79
2023-05-02T04:22:07.003Z,15.55
2023-05-02T04:24:35.337Z,15.78
2023-05-02T04:27:02.994Z,15.85
2023-05-02T04:29:30.494Z,16.37
2023-05-02T04:31:58.755Z,16.77
2023-05-02T04:34:28.392Z,16.84
2023-05-02T04:36:56.410Z,17.35
2023-05-02T04:39:26.578Z,17.51
2023-05-02T04:41:54.346Z,17.74
2023-05-02T04:44:22.911Z,18.07
2023-05-02T04:46:50.854Z,18.09
2023-05-02T04:49:19.927Z,18.25
2023-05-02T04:51:47.399Z,18.12
2023-05-02T04:54:15.706Z,18.19
2023-05-02T04:56:44.711Z,18.68
2023-05-02T04:59:12.452Z,18.84
2023-05-02T05:01:40.159Z,18.74
2023-05-02T05:04:08.113Z,17.90
2023-05-02T05:06:36.005Z,18.28
2023-05-02T05:09:04.232Z,18.69
2023-05-02T05:11:32.713Z,18.31
2023-05-02T05:14:00.766Z,18.64
2023-05-02T05:16:29.156Z,18.51
2023-05-02T05:18:57.899Z,18.14
2023-05-02T05:21:25.328Z,18.45
2023-05-02T05:23:53.084Z,17.93
2023-05-02T05:26:21.438Z,18.01
2023-05-02T05:28:50.341Z,18.09
2023-05-02T05:31:18.236Z,18.05
2023-05-02T05:33:46.378Z,17.62
2023-05-02T05:36:15.009Z,17.49
2023-05-02T05:38:43.081Z,17.62
2023-05-02T05:41:11.280Z,18.07
2023-05-02T05:43:38.972Z,18.05
2023-05-02T05:46:06.923Z,17.77
2023-05-02T05:48:34.580Z,17.68
2023-05-02T05:51:05.948Z,18.07
2023-05-02T05:53:34.004Z,17.66
2023-05-02T05:56:11.956Z,17.99
2023-05-02T05:58:40.479Z,17.70
2023-05-02T06:01:08.643Z,17.99
2023-05-02T06:03:36.822Z,17.83
2023-05-02T06:06:04.778Z,17.84
2023-05-02T06:41:13.272Z,18.72
2023-05-02T06:43:41.697Z,18.37
2023-05-02T06:46:09.816Z,18.41
2023-05-02T06:48:37.164Z,18.82
2023-05-02T06:51:04.767Z,18.93
2023-05-02T06:53:33.153Z,18.88
2023-05-02T06:56:00.851Z,19.39
2023-05-02T06:58:28.603Z,19.16
2023-05-02T07:00:55.965Z,19.25
2023-05-02T07:03:23.396Z,19.27
2023-05-02T07:05:51.003Z,19.52
2023-05-02T07:08:18.757Z,19.60
2023-05-02T07:10:46.157Z,19.52
2023-05-02T07:13:13.866Z,19.57
2023-05-02T07:15:42.312Z,19.89
2023-05-02T07:18:09.699Z,19.64
2023-05-02T07:20:38.904Z,19.90
2023-05-02T07:23:06.262Z,20.15
2023-05-02T07:25:33.668Z,20.24
2023-05-02T07:28:01.335Z,20.49
2023-05-02T07:30:28.757Z,20.86
2023-05-02T07:32:56.166Z,20.86
2023-05-02T07:35:24.092Z,20.98
2023-05-02T07:37:51.489Z,20.08
2023-05-02T07:40:19.017Z,20.46
2023-05-02T07:42:46.821Z,20.61
2023-05-02T07:45:14.440Z,21.14
2023-05-02T07:47:42.071Z,21.06
2023-05-02T07:50:10.233Z,20.62
2023-05-02T07:52:37.594Z,21.18
2023-05-02T07:55:05.335Z,20.95
2023-05-02T07:57:33.126Z,20.96
2023-05-02T08:00:00.809Z,21.10
2023-05-02T08:02:29.019Z,21.40
2023-05-02T08:04:56.766Z,20.77
2023-05-02T08:07:24.202Z,20.80
2023-05-02T08:09:51.747Z,21.21
2023-05-02T08:12:19.393Z,21.68
2023-05-02T08:14:46.789Z,21.77
2023-05-02T08:17:14.149Z,20.79
2023-05-02T08:19:41.799Z,21.16
2023-05-02T08:22:09.187Z,20.81
2023-05-02T08:24:36.624Z,20.86
2023-05-02T08:27:04.305Z,20.84
2023-05-02T08:29:31.800Z,21.08
2023-05-02T08:31:59.272Z,20.87
2023-05-02T08:34:26.985Z,20.62
2023-05-02T08:36:56.160Z,21.27
2023-05-02T08:39:24.999Z,21.55
2023-05-02T08:41:52.844Z,21.41
2023-05-02T08:44:20.742Z,21.79
2023-05-02T08:46:51.120Z,22.00
2023-05-02T08:49:19.735Z,22.01
2023-05-02T08:51:49.394Z,22.12
2023-05-02T08:54:17.304Z,22.20
2023-05-02T08:56:45.224Z,22.22
2023-05-02T08:59:12.562Z,22.27
2023-05-02T09:01:41.718Z,22.43
2023-05-02T09:04:09.578Z,22.07
2023-05-02T09:06:37.127Z,22.29
2023-05-02T09:09:04.567Z,22.49
2023-05-02T09:11:32.185Z,22.60
2023-05-02T09:14:03.902Z,22.97
2023-05-02T09:16:38.711Z,23.31
2023-05-02T09:19:06.189Z,23.09
2023-05-02T09:21:40.066Z,22.44
2023-05-02T09:24:21.401Z,22.14
2023-05-02T09:27:01.087Z,22.10
2023-05-02T09:29:30.825Z,22.22
2023-05-02T09:31:58.854Z,22.11
2023-05-02T09:34:26.293Z,22.83
2023-05-02T09:36:57.754Z,22.60
2023-05-02T09:39:29.124Z,22.73
2023-05-02T09:41:57.217Z,22.53
2023-05-02T09:44:26.763Z,22.91
2023-05-02T09:46:55.936Z,22.84
2023-05-02T09:49:44.883Z,22.93
2023-05-02T09:52:17.220Z,22.56
2023-05-02T09:54:57.100Z,22.92
2023-05-02T09:57:40.760Z,23.44
2023-05-02T10:00:08.975Z,23.34
2023-05-02T10:02:40.468Z,23.54
2023-05-02T10:05:11.115Z,23.30
2023-05-02T10:07:39.444Z,23.53
2023-05-02T10:10:07.778Z,23.89
2023-05-02T10:12:35.577Z,23.83
2023-05-02T10:15:04.384Z,23.39
2023-05-02T10:17:37.965Z,23.74
2023-05-02T10:20:07.455Z,23.59
2023-05-02T10:22:36.124Z,23.84
2023-05-02T10:25:04.217Z,23.78
2023-05-02T10:27:33.135Z,23.67
2023-05-02T10:30:01.256Z,23.65
2023-05-02T10:32:29.624Z,23.83
2023-05-02T10:34:57.944Z,23.78
2023-05-02T10:37:26.609Z,23.90
2023-05-02T10:39:53.976Z,23.75
2023-05-02T10:42:21.673Z,24.12
2023-05-02T10:44:50.492Z,23.74
2023-05-02T10:47:26.586Z,24.10
2023-05-02T10:49:56.792Z,23.77
2023-05-02T10:52:32.846Z,23.82
2023-05-02T10:55:20.464Z,24.03
2023-05-02T10:57:57.859Z,23.99
2023-05-02T11:00:27.618Z,23.97
2023-05-02T11:02:55.193Z,23.70
2023-05-02T11:05:24.221Z,23.22
2023-05-02T11:08:19.404Z,23.64
2023-05-02T11:10:47.786Z,23.90
2023-05-02T11:13:15.604Z,24.06
2023-05-02T11:15:42.965Z,24.41
2023-05-02T11:18:14.617Z,24.41
2023-05-02T11:20:43.726Z,24.15
2023-05-02T11:23:13.978Z,24.47
2023-05-02T11:25:43.640Z,24.88
2023-05-02T11:28:48.028Z,24.73
2023-05-02T11:31:28.260Z,24.55
2023-05-02T11:33:59.452Z,24.39
2023-05-02T11:36:34.863Z,24.50
2023-05-02T11:39:05.767Z,25.02
2023-05-02T11:41:43.064Z,24.66
2023-05-02T11:44:10.606Z,24.46
2023-05-02T11:46:39.315Z,24.48
2023-05-02T11:49:09.761Z,24.81
2023-05-02T11:51:37.850Z,24.42
2023-05-02T11:54:07.656Z,24.27
2023-05-02T11:56:35.065Z,24.47
2023-05-02T11:59:03.806Z,23.98
2023-05-02T12:01:31.417Z,24.48
2023-05-02T12:04:21.852Z,24.56
2023-05-02T12:06:58.661Z,25.18
2023-05-02T12:09:26.332Z,25.23
2023-05-02T12:11:54.042Z,25.35
2023-05-02T12:14:33.436Z,25.61
2023-05-02T12:17:03.495Z,25.53
2023-05-02T12:19:31.077Z,25.14
2023-05-02T12:21:58.491Z,25.45
2023-05-02T12:24:27.105Z,25.57
2023-05-02T12:27:14.253Z,25.45
2023-05-02T12:29:47.025Z,25.06
2023-05-02T12:32:15.329Z,24.79
2023-05-02T12:34:42.938Z,25.06
2023-05-02T12:37:11.789Z,25.15
2023-05-02T12:39:40.735Z,25.23
2023-05-02T12:42:15.952Z,24.86
2023-05-02T12:44:44.989Z,24.69
2023-05-02T12:47:15.611Z,24.48
2023-05-02T12:49:49.932Z,24.41
2023-05-02T12:52:26.728Z,24.31
2023-05-02T12:54:53.950Z,24.47
2023-05-02T12:57:25.742Z,24.37
2023-05-02T12:59:56.744Z,24.58
2023-05-02T13:02:24.689Z,24.45
2023-05-02T13:04:52.864Z,24.69
2023-05-02T13:07:20.201Z,24.94
2023-05-02T13:09:47.974Z,24.86
2023-05-02T13:12:15.352Z,24.93
2023-05-02T13:14:42.788Z,25.01
2023-05-02T13:17:10.686Z,24.65
2023-05-02T13:19:40.502Z,24.49
2023-05-02T13:22:12.213Z,24.79
2023-05-02T13:24:39.593Z,24.81
2023-05-02T13:27:07.638Z,24.96
2023-05-02T13:29:35.280Z,24.89
2023-05-02T13:32:03.180Z,24.71
2023-05-02T13:34:30.891Z,24.98
2023-05-02T13:36:58.501Z,25.37
2023-05-02T13:39:25.866Z,24.68
2023-05-02T13:41:54.561Z,24.21
2023-05-02T13:44:22.364Z,24.35
2023-05-02T13:46:49.792Z,24.12
2023-05-02T13:49:17.191Z,24.21
2023-05-02T13:51:44.899Z,24.32
2023-05-02T13:54:12.312Z,24.32
2023-05-02T13:56:39.918Z,24.75
2023-05-02T13:59:08.720Z,24.03
2023-05-02T14:01:40.549Z,24.27
2023-05-02T14:04:09.102Z,23.97
2023-05-02T14:06:37.004Z,24.29
2023-05-02T14:09:04.477Z,24.28
2023-05-02T14:11:32.102Z,23.83
2023-05-02T14:13:59.802Z,24.00
2023-05-02T14:16:27.193Z,23.65
2023-05-02T14:18:54.861Z,24.07
2023-05-02T14:21:22.237Z,24.20
2023-05-02T14:23:49.646Z,24.20
2023-05-02T14:26:20.078Z,24.35
2023-05-02T14:28:47.434Z,24.21
2023-05-02T14:31:15.125Z,24.22
2023-05-02T14:33:42.841Z,24.32
2023-05-02T14:36:10.248Z,24.30
2023-05-02T14:38:37.758Z,24.21
2023-05-02T14:41:06.761Z,24.14
2023-05-02T14:43:34.132Z,24.08
2023-05-02T14:46:02.711Z,24.10
2023-05-02T14:48:30.344Z,24.10
2023-05-02T14:50:58.962Z,23.79
2023-05-02T14:53:26.410Z,23.74
2023-05-02T14:55:54.023Z,23.46
2023-05-02T14:58:21.653Z,23.65
2023-05-02T15:00:49.181Z,23.47
2023-05-02T15:03:17.025Z,23.64
2023-05-02T15:05:44.534Z,23.56
2023-05-02T15:08:11.948Z,23.72
2023-05-02T15:10:39.919Z,23.54
2023-05-02T15:13:08.741Z,23.72
2023-05-02T15:15:37.472Z,23.92
2023-05-02T15:18:05.429Z,23.84
2023-05-02T15:20:38.612Z,23.87
2023-05-02T15:23:06.947Z,23.84
2023-05-02T15:25:34.466Z,23.92
2023-05-02T15:28:03.152Z,24.14
2023-05-02T15:30:30.852Z,24.09
2023-05-02T15:32:58.405Z,24.03
2023-05-02T15:35:25.848Z,23.50
2023-05-02T15:37:53.746Z,23.40
2023-05-02T15:40:21.168Z,23.49
2023-05-02T15:42:48.835Z,23.22
2023-05-02T15:45:16.767Z,23.43
2023-05-02T15:47:50.638Z,23.24
2023-05-02T15:50:18.506Z,23.22
2023-05-02T15:52:45.959Z,23.38
2023-05-02T15:55:13.592Z,23.37
2023-05-02T15:57:41.824Z,23.42
2023-05-02T16:00:16.636Z,23.47
2023-05-02T16:02:44.740Z,23.36
2023-05-02T16:05:14.860Z,23.11
2023-05-02T16:07:42.201Z,23.40
2023-05-02T16:10:10.549Z,23.39
2023-05-02T16:12:37.929Z,23.53
2023-05-02T16:15:06.273Z,23.49
2023-05-02T16:17:34.192Z,23.37
2023-05-02T16:20:02.388Z,23.48
2023-05-02T16:22:30.148Z,23.03
2023-05-02T16:24:57.759Z,23.39
2023-05-02T16:27:25.213Z,23.33
2023-05-02T16:29:52.610Z,23.37
2023-05-02T16:32:20.592Z,23.01
2023-05-02T16:34:47.981Z,23.12
2023-05-02T16:37:15.491Z,23.08
2023-05-02T16:39:43.154Z,23.22
2023-05-02T16:42:11.797Z,23.41
2023-05-02T16:44:39.699Z,23.17
2023-05-02T16:47:08.142Z,23.16
2023-05-02T16:49:35.738Z,23.24
2023-05-02T16:52:04.159Z,22.90
2023-05-02T16:54:31.827Z,22.81
2023-05-02T16:57:02.599Z,22.89
2023-05-02T16:59:30.020Z,22.87
2023-05-02T17:01:57.943Z,22.93
2023-05-02T17:04:25.445Z,22.93
2023-05-02T17:06:54.882Z,22.81
2023-05-02T17:09:24.637Z,22.93
2023-05-02T17:11:52.026Z,23.00
2023-05-02T17:14:19.822Z,22.65
2023-05-02T17:16:47.499Z,22.58
2023-05-02T17:19:14.886Z,22.42
2023-05-02T17:21:42.345Z,22.04
2023-05-02T17:24:10.000Z,22.02
2023-05-02T17:26:37.397Z,21.76
2023-05-02T17:29:04.821Z,21.55
2023-05-02T17:31:32.738Z,21.51
2023-05-02T17:34:00.390Z,21.33
2023-05-02T17:36:27.973Z,21.39
2023-05-02T17:38:55.668Z,21.06
2023-05-02T17:41:23.042Z,21.00
2023-05-02T17:43:50.421Z,21.00
2023-05-02T17:46:18.179Z,20.94
2023-05-02T17:48:46.175Z,20.97
2023-05-02T17:51:13.815Z,20.65
2023-05-02T17:53:43.030Z,20.83
2023-05-02T17:56:11.164Z,20.84
2023-05-02T17:58:38.850Z,20.82
2023-05-02T18:01:08.258Z,20.72
2023-05-02T18:03:37.003Z,20.72
2023-05-02T18:06:06.186Z,20.73
2023-05-02T18:08:34.008Z,20.57
2023-05-02T18:11:03.431Z,20.64
2023-05-02T18:13:31.059Z,20.68
2023-05-02T18:16:00.333Z,20.44
2023-05-02T18:18:28.261Z,20.06
2023-05-02T18:20:55.880Z,19.94
2023-05-02T18:23:23.473Z,19.63
2023-05-02T18:25:51.880Z,19.84
2023-05-02T18:28:19.866Z,19.29
2023-05-02T18:30:47.591Z,18.92
2023-05-02T18:33:17.433Z,18.80
2023-05-02T18:35:49.385Z,18.82
2023-05-02T18:38:17.509Z,19.07
2023-05-02T18:40:45.590Z,18.65
2023-05-02T18:43:13.686Z,18.93
2023-05-02T18:45:41.673Z,18.30
2023-05-02T18:48:10.099Z,17.94
2023-05-02T18:50:37.895Z,17.90
2023-05-02T18:53:05.606Z,18.03
2023-05-02T18:55:33.538Z,17.81
2023-05-02T18:58:01.969Z,17.77
2023-05-02T19:00:32.063Z,17.70
2023-05-02T19:03:00.465Z,17.45
2023-05-02T19:05:28.698Z,17.43
2023-05-02T19:07:58.479Z,17.83
2023-05-02T19:10:27.917Z,17.51
2023-05-02T19:12:56.435Z,17.63
2023-05-02T19:15:27.832Z,17.38
2023-05-02T19:17:56.734Z,17.71
2023-05-02T19:20:24.917Z,17.54
2023-05-02T19:23:02.915Z,17.59
2023-05-02T19:25:41.617Z,17.04
2023-05-02T19:28:10.635Z,17.32
2023-05-02T19:30:42.500Z,17.23
2023-05-02T19:33:11.132Z,17.31
2023-05-02T19:35:40.635Z,17.21
2023-05-02T19:38:08.401Z,17.15
2023-05-02T19:40:37.308Z,17.19
2023-05-02T19:43:08.661Z,17.16
2023-05-02T19:45:37.199Z,17.11
2023-05-02T19:48:05.290Z,16.84
2023-05-02T19:50:33.862Z,16.79
2023-05-02T19:53:02.333Z,17.23
2023-05-02T19:55:29.904Z,16.76
2023-05-02T19:57:57.946Z,16.95
2023-05-02T20:00:26.015Z,16.57
2023-05-02T20:02:55.865Z,16.71
2023-05-02T20:05:24.575Z,16.90
2023-05-02T20:07:52.865Z,17.13
2023-05-02T20:10:20.711Z,17.14
2023-05-02T20:12:48.465Z,17.13
2023-05-02T20:15:18.908Z,16.90
2023-05-02T20:17:48.281Z,16.48
2023-05-02T20:20:15.880Z,16.78
2023-05-02T20:22:46.207Z,16.25
2023-05-02T20:25:18.321Z,16.34
2023-05-02T20:27:45.710Z,16.45
2023-05-02T20:30:14.339Z,16.45
2023-05-02T20:32:42.242Z,16.22
2023-05-02T20:35:10.391Z,16.00
2023-05-02T20:37:37.897Z,16.07
2023-05-02T20:40:09.796Z,16.69
2023-05-02T20:42:40.212Z,16.64
2023-05-02T20:45:08.762Z,16.69
2023-05-02T20:47:36.303Z,16.40
2023-05-02T20:50:04.245Z,16.61
2023-05-02T20:52:33.021Z,16.97
2023-05-02T20:55:01.779Z,16.44
2023-05-02T20:57:29.209Z,16.42
2023-05-02T21:00:00.135Z,16.17
2023-05-02T21:02:28.192Z,16.23
2023-05-02T21:04:55.815Z,16.35
2023-05-02T21:07:23.487Z,16.28
2023-05-02T21:09:51.038Z,15.84
2023-05-02T21:12:19.257Z,16.00
2023-05-02T21:14:47.341Z,15.73
2023-05-02T21:17:14.943Z,15.76
2023-05-02T21:19:42.359Z,16.09
2023-05-02T21:22:11.030Z,16.12
2023-05-02T21:24:38.392Z,16.18
2023-05-02T21:27:05.848Z,15.65
2023-05-02T21:29:33.523Z,15.64
2023-05-02T21:32:01.144Z,15.79
2023-05-02T21:34:28.762Z,16.00
2023-05-02T21:36:56.425Z,15.74
2023-05-02T21:39:23.866Z,15.76
2023-05-02T21:41:51.257Z,15.99
2023-05-02T21:44:18.884Z,15.86
2023-05-02T21:46:47.281Z,15.59
2023-05-02T21:49:14.708Z,15.51
2023-05-02T21:51:43.622Z,15.89
2023-05-02T21:54:11.093Z,15.80
2023-05-02T21:56:38.545Z,16.10
2023-05-02T21:59:06.297Z,16.20
2023-05-02T22:01:33.904Z,16.46
2023-05-02T22:04:01.584Z,16.54
2023-05-02T22:06:29.380Z,16.61
2023-05-02T22:08:56.893Z,16.76
2023-05-02T22:11:25.553Z,16.61
2023-05-02T22:13:52.989Z,16.80
2023-05-02T22:16:21.445Z,16.63
2023-05-02T22:18:49.633Z,16.47
2023-05-02T22:21:18.892Z,16.72
2023-05-02T22:23:46.344Z,16.53
2023-05-02T22:26:14.328Z,16.33
2023-05-02T22:28:41.737Z,16.56
2023-05-02T22:31:09.149Z,16.46
2023-05-02T22:33:36.833Z,16.37
2023-05-02T22:36:04.336Z,16.67
2023-05-02T22:38:31.737Z,16.82
2023-05-02T22:41:00.624Z,16.74
2023-05-02T22:43:28.125Z,17.10
2023-05-02T22:45:56.020Z,17.15
2023-05-02T22:48:23.704Z,17.11
2023-05-02T22:50:51.182Z,17.34
2023-05-02T22:53:21.639Z,17.43
2023-05-02T22:55:51.038Z,17.38
2023-05-02T22:58:19.092Z,17.16
2023-05-02T23:00:46.518Z,16.86
2023-05-02T23:03:15.697Z,16.73
2023-05-02T23:05:43.090Z,16.65
2023-05-02T23:08:10.734Z,16.40
2023-05-02T23:10:38.385Z,16.29
2023-05-02T23:13:06.022Z,15.90
2023-05-02T23:15:33.424Z,16.08
2023-05-02T23:18:01.197Z,16.16
2023-05-02T23:20:28.681Z,15.62
2023-05-02T23:22:56.307Z,15.53
2023-05-02T23:25:26.551Z,15.49
2023-05-02T23:27:53.910Z,16.21
2023-05-02T23:30:21.520Z,15.82
2023-05-02T23:32:49.243Z,15.57
2023-05-02T23:35:16.738Z,15.29
2023-05-02T23:37:44.502Z,15.53
2023-05-02T23:40:12.212Z,15.58
2023-05-02T23:42:40.454Z,15.35
2023-05-02T23:45:08.915Z,15.52
2023-05-02T23:47:37.870Z,15.50
2023-05-02T23:50:06.067Z,15.65
2023-05-02T23:52:35.767Z,15.57
2023-05-02T23:55:04.262Z,15.55
2023-05-02T23:57:31.733Z,15.66
2023-05-02T23:59:59.085Z,15.97
